Dunwoody, Georgia
Current Conditions -  °F | °C
As of 10:53 PM on Thursday 27 Nov 2014 (Local Time) from KPDK Reporting Station
Clear Clear  
Wind Chill: 28°   Ceiling: Unl
Heat Index: 35°   Visibility: 10mi
Dew Point: 22°   Wind: 9mph
Humidity: 59%   Direction: 320°NW
Pressure: 30.37"   Gusts: 18mph
Location:  33.95°N, 84.33°W
Report Text: KPDK 280353Z AUTO 32008G16KT 10SM CLR 02/M06 A3037 RMK AO2 SLP297 T00171056
Loading
Personal Weather Stations






























Interactive Weather Map New forecast layout! Learn more

10-Day Weather Forecast

Advertisements
Track Severe Weather on mobile